createdAt,value
2023-04-16T00:00:21.520Z,28.72
2023-04-16T00:01:26.802Z,28.72
2023-04-16T00:02:33.392Z,28.72
2023-04-16T00:03:38.988Z,28.72
2023-04-16T00:04:45.844Z,28.71
2023-04-16T00:05:51.147Z,28.70
2023-04-16T00:06:58.045Z,28.70
2023-04-16T00:08:03.447Z,28.66
2023-04-16T00:09:11.818Z,28.66
2023-04-16T00:10:17.509Z,28.63
2023-04-16T00:11:24.113Z,28.62
2023-04-16T00:12:29.435Z,28.61
2023-04-16T00:13:36.026Z,28.60
2023-04-16T00:14:41.315Z,28.61
2023-04-16T00:15:48.587Z,28.61
2023-04-16T00:16:53.918Z,28.60
2023-04-16T00:18:00.549Z,28.60
2023-04-16T00:19:05.875Z,28.60
2023-04-16T00:20:13.370Z,28.60
2023-04-16T00:21:18.774Z,28.58
2023-04-16T00:22:25.322Z,28.60
2023-04-16T00:23:30.600Z,28.58
2023-04-16T00:24:38.899Z,28.60
2023-04-16T00:25:44.693Z,28.58
2023-04-16T00:26:51.241Z,28.61
2023-04-16T00:27:56.496Z,28.62
2023-04-16T00:29:03.012Z,28.63
2023-04-16T00:30:09.343Z,28.61
2023-04-16T00:31:15.961Z,28.62
2023-04-16T00:32:21.302Z,28.63
2023-04-16T00:33:28.254Z,28.61
2023-04-16T00:34:33.468Z,28.64
2023-04-16T00:35:42.742Z,28.66
2023-04-16T00:36:48.003Z,28.68
2023-04-16T00:37:54.617Z,28.69
2023-04-16T00:39:00.048Z,28.70
2023-04-16T00:40:08.868Z,28.72
2023-04-16T00:41:14.176Z,28.72
2023-04-16T00:42:20.728Z,28.73
2023-04-16T00:43:27.227Z,28.75
2023-04-16T00:44:36.415Z,28.76
2023-04-16T00:45:41.699Z,28.78
2023-04-16T00:46:48.564Z,28.80
2023-04-16T00:47:53.888Z,28.81
2023-04-16T00:49:00.783Z,28.82
2023-04-16T00:50:06.828Z,28.83
2023-04-16T00:51:13.462Z,28.84
2023-04-16T00:52:18.798Z,28.86
2023-04-16T00:53:25.448Z,28.86
2023-04-16T00:54:31.102Z,28.88
2023-04-16T00:55:39.373Z,28.87
2023-04-16T00:56:44.572Z,28.88
2023-04-16T00:57:51.107Z,28.90
2023-04-16T00:58:58.091Z,28.93
2023-04-16T01:00:05.067Z,28.94
2023-04-16T01:01:10.434Z,28.97
2023-04-16T01:02:17.333Z,28.99
2023-04-16T01:03:22.845Z,28.99
2023-04-16T01:04:31.343Z,29.01
2023-04-16T01:05:36.627Z,29.01
2023-04-16T01:06:43.108Z,29.02
2023-04-16T01:07:48.303Z,29.04
2023-04-16T01:08:54.868Z,29.05
2023-04-16T01:10:00.205Z,29.06
2023-04-16T01:11:08.626Z,29.05
2023-04-16T01:12:13.847Z,29.08
2023-04-16T01:13:20.369Z,29.08
2023-04-16T01:14:25.622Z,29.11
2023-04-16T01:15:32.278Z,29.11
2023-04-16T01:16:38.101Z,29.14
2023-04-16T01:17:44.676Z,29.16
2023-04-16T01:18:52.152Z,29.15
2023-04-16T01:19:58.802Z,29.17
